Time;durP1;ratioP1;P1;durP2;ratioP2;P2;SDS_P1;SDS_P2;PMS_P1;PMS_P2;Temp;Humidity;BMP_temperature;BMP_pressure;BME280_temperature;BME280_humidity;BME280_pressure;Samples;Min_cycle;Max_cycle;Signal;HPM_P1;HPM_P2
2022/10/07 00:00:59;;;;;;;7.50;4.43;;;9.20;99.90;;;;;;5031734;28;20045;-70
2022/10/07 00:03:27;;;;;;;9.40;4.75;;;9.20;99.90;;;;;;5024957;28;20412;-69
2022/10/07 00:06:00;;;;;;;8.10;4.30;;;9.20;99.90;;;;;;5027592;28;20380;-69
2022/10/07 00:08:28;;;;;;;8.32;4.30;;;9.20;99.90;;;;;;5026189;28;20107;-69
2022/10/07 00:10:57;;;;;;;10.05;4.78;;;9.20;99.90;;;;;;5031363;28;20119;-69
2022/10/07 00:13:24;;;;;;;9.55;4.40;;;9.10;99.90;;;;;;5024545;28;20050;-69
2022/10/07 00:15:52;;;;;;;10.15;4.90;;;9.10;99.90;;;;;;5024913;28;20515;-70
2022/10/07 00:18:19;;;;;;;11.27;5.57;;;9.10;99.90;;;;;;5026117;28;20056;-70
2022/10/07 00:20:47;;;;;;;13.90;7.38;;;9.10;99.90;;;;;;5024456;28;20128;-69
2022/10/07 00:23:14;;;;;;;11.68;7.55;;;9.10;99.90;;;;;;5029761;28;20121;-70
2022/10/07 00:25:42;;;;;;;14.90;7.90;;;9.10;99.90;;;;;;5028709;28;20049;-69
2022/10/07 00:28:09;;;;;;;14.10;8.48;;;9.00;99.90;;;;;;5027494;28;20053;-70
2022/10/07 00:30:36;;;;;;;20.98;10.63;;;9.00;99.90;;;;;;5021476;28;20404;-69
2022/10/07 00:33:04;;;;;;;27.85;14.10;;;9.00;99.90;;;;;;5029759;28;20076;-70
2022/10/07 00:35:34;;;;;;;25.88;13.30;;;9.00;99.90;;;;;;4997042;28;20527;-69
2022/10/07 00:38:01;;;;;;;25.67;13.20;;;9.10;99.90;;;;;;5022016;28;20053;-69
2022/10/07 00:40:29;;;;;;;27.98;13.30;;;9.10;99.90;;;;;;5026550;28;20125;-69
2022/10/07 00:42:56;;;;;;;26.75;13.02;;;9.00;99.90;;;;;;5018051;28;20407;-69
2022/10/07 00:45:23;;;;;;;21.08;12.48;;;9.00;99.90;;;;;;5014201;28;20412;-69
2022/10/07 00:47:51;;;;;;;29.75;12.18;;;9.00;99.90;;;;;;5014084;28;20069;-69
2022/10/07 00:50:24;;;;;;;22.42;11.63;;;9.00;99.90;;;;;;5014864;28;20033;-70
2022/10/07 00:52:56;;;;;;;21.77;10.75;;;9.00;99.90;;;;;;4989072;28;20078;-69
2022/10/07 00:55:26;;;;;;;16.63;9.23;;;9.00;99.90;;;;;;5017392;28;20531;-69
2022/10/07 00:57:57;;;;;;;15.18;8.00;;;9.00;99.90;;;;;;5020234;28;20406;-69
2022/10/07 01:00:25;;;;;;;14.40;7.28;;;8.90;99.90;;;;;;5020641;28;20048;-69
2022/10/07 01:02:52;;;;;;;12.20;7.00;;;8.90;99.90;;;;;;5028900;28;20412;-69
2022/10/07 01:05:20;;;;;;;13.77;6.80;;;8.90;99.90;;;;;;5028384;28;20069;-69
2022/10/07 01:07:49;;;;;;;16.38;6.82;;;8.80;99.90;;;;;;5016057;28;20044;-69
2022/10/07 01:10:20;;;;;;;14.18;6.60;;;8.80;99.90;;;;;;5028987;28;20081;-70
2022/10/07 01:13:13;;;;;;;9.48;5.75;;;8.80;99.90;;;;;;5028948;28;20060;-69
2022/10/07 01:15:50;;;;;;;9.75;5.60;;;8.80;99.90;;;;;;5009125;28;20799;-69
2022/10/07 01:18:22;;;;;;;10.88;5.18;;;8.80;99.90;;;;;;5043486;28;20049;-69
2022/10/07 01:21:15;;;;;;;8.80;4.80;;;8.70;99.90;;;;;;5001573;28;20077;-69
2022/10/07 01:23:54;;;;;;;9.55;5.03;;;8.70;99.90;;;;;;5028437;28;20495;-69
2022/10/07 01:26:43;;;;;;;9.50;4.40;;;8.70;99.90;;;;;;5011791;28;20431;-70
2022/10/07 01:29:37;;;;;;;8.90;4.10;;;8.70;99.90;;;;;;5028579;28;20044;-69
2022/10/07 01:32:05;;;;;;;10.88;4.20;;;8.70;99.90;;;;;;5006657;28;20045;-70
2022/10/07 01:34:35;;;;;;;9.55;3.90;;;8.80;99.90;;;;;;5009318;28;20123;-70
2022/10/07 01:37:07;;;;;;;9.85;4.00;;;8.90;99.90;;;;;;5008074;28;20049;-69
2022/10/07 01:39:42;;;;;;;7.95;4.63;;;8.90;99.90;;;;;;5030831;28;20050;-69
2022/10/07 01:42:10;;;;;;;9.07;3.80;;;9.00;99.90;;;;;;5028664;28;20347;-69
2022/10/07 01:44:39;;;;;;;9.02;3.75;;;9.20;99.90;;;;;;5029645;28;20068;-69
2022/10/07 01:47:07;;;;;;;7.53;4.00;;;9.20;99.90;;;;;;5024165;28;20121;-69
2022/10/07 01:49:34;;;;;;;7.50;3.90;;;9.30;99.90;;;;;;5021875;28;20518;-69
2022/10/07 01:52:10;;;;;;;9.32;4.78;;;9.40;99.90;;;;;;5028302;28;20061;-69
2022/10/07 01:55:19;;;;;;;10.70;4.00;;;9.40;99.90;;;;;;5014430;28;20068;-69
2022/10/07 01:58:11;;;;;;;9.18;3.97;;;9.30;99.90;;;;;;5027962;28;20050;-70
2022/10/07 02:00:48;;;;;;;8.88;4.22;;;9.30;99.90;;;;;;5011081;28;20057;-69
2022/10/07 02:03:44;;;;;;;12.18;4.50;;;9.30;99.90;;;;;;5029280;28;20449;-69
2022/10/07 02:06:39;;;;;;;9.68;4.72;;;9.20;99.90;;;;;;4995701;28;20392;-70
2022/10/07 02:09:22;;;;;;;9.57;4.20;;;9.20;99.90;;;;;;4993728;28;20520;-69
2022/10/07 02:11:59;;;;;;;10.50;4.78;;;9.10;99.90;;;;;;4993159;28;20065;-70
2022/10/07 02:14:40;;;;;;;11.35;4.25;;;9.10;99.90;;;;;;5012737;28;20049;-69
2022/10/07 02:17:14;;;;;;;9.10;5.13;;;9.00;99.90;;;;;;5012289;28;20499;-69
2022/10/07 02:19:47;;;;;;;11.90;5.43;;;8.90;99.90;;;;;;4989984;28;20041;-69
2022/10/07 02:22:18;;;;;;;13.77;5.22;;;8.90;99.90;;;;;;5022239;28;20152;-69
2022/10/07 02:24:48;;;;;;;14.80;6.97;;;8.80;99.90;;;;;;5001370;28;20042;-69
2022/10/07 02:27:23;;;;;;;13.68;6.70;;;8.80;99.90;;;;;;4998212;28;20524;-70
2022/10/07 02:29:58;;;;;;;10.10;6.05;;;8.70;99.90;;;;;;5005676;28;20041;-69
2022/10/07 02:32:29;;;;;;;13.52;5.75;;;8.70;99.90;;;;;;4996850;28;20054;-70
2022/10/07 02:35:04;;;;;;;12.00;5.22;;;8.70;99.90;;;;;;5002112;28;20627;-69
2022/10/07 02:37:34;;;;;;;10.70;5.50;;;8.70;99.90;;;;;;5013343;28;20044;-69
2022/10/07 02:40:04;;;;;;;10.90;5.30;;;8.70;99.90;;;;;;5021834;28;20046;-69
2022/10/07 02:42:38;;;;;;;13.15;5.75;;;8.60;99.90;;;;;;5027807;28;20064;-69
2022/10/07 02:45:06;;;;;;;12.10;5.28;;;8.60;99.90;;;;;;5022146;28;20100;-68
2022/10/07 02:47:49;;;;;;;9.70;4.93;;;8.70;99.90;;;;;;5019972;28;20393;-68
2022/10/07 02:50:22;;;;;;;9.55;5.50;;;8.70;99.90;;;;;;5053749;28;20400;-69
2022/10/07 02:52:53;;;;;;;11.32;5.43;;;8.80;99.90;;;;;;5014067;28;20048;-69
2022/10/07 02:55:25;;;;;;;12.27;5.33;;;8.80;99.90;;;;;;5016968;28;20041;-69
2022/10/07 02:57:57;;;;;;;13.27;5.38;;;8.90;99.90;;;;;;5009551;28;20052;-69
2022/10/07 03:00:31;;;;;;;12.32;4.90;;;8.90;99.90;;;;;;5009427;28;20149;-69
2022/10/07 03:03:01;;;;;;;9.18;4.93;;;8.90;99.90;;;;;;5017129;28;20029;-69
2022/10/07 03:05:38;;;;;;;11.82;4.38;;;9.00;99.90;;;;;;5016100;28;20033;-68
2022/10/07 03:08:08;;;;;;;9.27;4.43;;;9.00;99.90;;;;;;5020281;28;20515;-69
2022/10/07 03:10:36;;;;;;;8.07;4.13;;;9.10;99.90;;;;;;5024665;28;20044;-68
2022/10/07 03:13:06;;;;;;;9.35;3.90;;;9.10;99.90;;;;;;5013624;28;20049;-69
2022/10/07 03:15:36;;;;;;;8.57;4.20;;;9.20;99.90;;;;;;5031329;28;20038;-68
2022/10/07 03:18:25;;;;;;;9.18;4.00;;;9.20;99.90;;;;;;5028702;28;20069;-69
2022/10/07 03:21:00;;;;;;;10.63;4.68;;;9.20;99.90;;;;;;5011842;28;20423;-71
2022/10/07 03:23:28;;;;;;;8.93;4.82;;;9.20;99.90;;;;;;5031605;28;20049;-71
2022/10/07 03:25:57;;;;;;;11.05;4.55;;;9.20;99.90;;;;;;5030458;28;20053;-70
2022/10/07 03:28:27;;;;;;;10.18;3.80;;;9.20;99.90;;;;;;5011338;28;20418;-69
2022/10/07 03:31:03;;;;;;;12.07;4.57;;;9.10;99.90;;;;;;5027266;28;20048;-69
2022/10/07 03:33:31;;;;;;;10.35;4.63;;;9.10;99.90;;;;;;5010456;28;20461;-69
2022/10/07 03:35:59;;;;;;;7.45;4.20;;;9.10;99.90;;;;;;5018713;28;20069;-69
2022/10/07 03:38:26;;;;;;;8.15;4.10;;;9.00;99.90;;;;;;5022368;28;20770;-70
2022/10/07 03:40:54;;;;;;;9.48;4.10;;;9.00;99.90;;;;;;5020210;28;20041;-69
2022/10/07 03:43:22;;;;;;;9.90;4.60;;;9.00;99.90;;;;;;5008477;28;20127;-69
2022/10/07 03:45:50;;;;;;;7.03;3.70;;;8.90;99.90;;;;;;5044953;28;20080;-70
2022/10/07 03:48:18;;;;;;;8.73;4.20;;;8.80;99.90;;;;;;5026454;28;20401;-69
2022/10/07 03:50:51;;;;;;;7.07;3.72;;;8.80;99.90;;;;;;5024861;28;20037;-69
2022/10/07 03:53:21;;;;;;;7.45;3.95;;;8.80;99.90;;;;;;5029382;28;20412;-69
2022/10/07 03:55:49;;;;;;;6.95;3.80;;;8.80;99.90;;;;;;5029281;28;20041;-69
2022/10/07 03:58:16;;;;;;;7.70;3.72;;;8.70;99.90;;;;;;5021002;28;20381;-69
2022/10/07 04:00:45;;;;;;;9.23;3.92;;;8.70;99.90;;;;;;5023875;28;20043;-68
2022/10/07 04:03:15;;;;;;;8.27;4.07;;;8.70;99.90;;;;;;5012947;28;20157;-69
2022/10/07 04:05:44;;;;;;;8.13;3.70;;;8.70;99.90;;;;;;5055967;28;20041;-69
2022/10/07 04:08:16;;;;;;;8.18;3.70;;;8.70;99.90;;;;;;5029683;28;20042;-69
2022/10/07 04:10:43;;;;;;;8.73;4.13;;;8.60;99.90;;;;;;5024494;28;20061;-68
2022/10/07 04:13:11;;;;;;;11.50;4.40;;;8.60;99.90;;;;;;5034010;28;20077;-68
2022/10/07 04:15:39;;;;;;;13.15;4.00;;;8.60;99.90;;;;;;5024492;28;20115;-69
2022/10/07 04:18:09;;;;;;;8.93;4.40;;;8.60;99.90;;;;;;5030283;28;20044;-69
2022/10/07 04:20:37;;;;;;;7.75;3.95;;;8.60;99.90;;;;;;5031673;28;20042;-69
2022/10/07 04:23:06;;;;;;;7.28;4.32;;;8.60;99.90;;;;;;5021703;28;20984;-68
2022/10/07 04:25:33;;;;;;;7.78;3.95;;;8.60;99.90;;;;;;5022873;28;20107;-68
2022/10/07 04:28:13;;;;;;;6.35;3.58;;;8.60;99.90;;;;;;5017964;28;20045;-68
2022/10/07 04:30:42;;;;;;;6.85;3.80;;;8.70;99.90;;;;;;5005459;28;20476;-69
2022/10/07 04:33:12;;;;;;;8.53;3.73;;;8.70;99.90;;;;;;5005577;28;20108;-69
2022/10/07 04:35:40;;;;;;;6.30;3.72;;;8.70;99.90;;;;;;5010267;28;20451;-69
2022/10/07 04:38:09;;;;;;;8.57;3.80;;;8.70;99.90;;;;;;5014420;28;20559;-68
2022/10/07 04:40:44;;;;;;;8.15;3.50;;;8.80;99.90;;;;;;5028163;28;20045;-69
2022/10/07 04:43:25;;;;;;;8.15;3.72;;;8.90;99.90;;;;;;5028906;28;20072;-69
2022/10/07 04:46:09;;;;;;;6.83;3.60;;;8.90;99.90;;;;;;4993467;28;20066;-68
2022/10/07 04:48:44;;;;;;;8.15;4.10;;;8.90;99.90;;;;;;5025339;28;20400;-69
2022/10/07 04:51:15;;;;;;;9.82;3.75;;;9.00;99.90;;;;;;5029308;28;20534;-69
2022/10/07 04:53:53;;;;;;;9.27;3.58;;;9.10;99.90;;;;;;5025839;28;20113;-69
2022/10/07 04:56:30;;;;;;;11.18;3.55;;;9.10;99.90;;;;;;5028464;28;20049;-69
2022/10/07 04:58:59;;;;;;;11.25;3.60;;;9.20;99.90;;;;;;5010361;28;20081;-69
2022/10/07 05:01:27;;;;;;;8.07;3.67;;;9.20;99.90;;;;;;5020785;28;20480;-70
2022/10/07 05:03:55;;;;;;;8.70;3.70;;;9.20;99.90;;;;;;5030500;28;20042;-68
2022/10/07 05:06:22;;;;;;;7.43;3.50;;;9.20;99.90;;;;;;5034859;28;20125;-69
2022/10/07 05:08:51;;;;;;;8.52;3.90;;;9.30;99.90;;;;;;5021499;28;20051;-68
2022/10/07 05:11:20;;;;;;;7.13;3.67;;;9.30;99.90;;;;;;5020918;28;20080;-69
2022/10/07 05:13:54;;;;;;;8.40;4.07;;;9.30;99.90;;;;;;5015694;28;20048;-69
2022/10/07 05:16:22;;;;;;;9.77;3.95;;;9.30;99.90;;;;;;5027541;28;20551;-69
2022/10/07 05:18:50;;;;;;;8.82;4.30;;;9.40;99.90;;;;;;5020513;28;20069;-69
2022/10/07 05:21:18;;;;;;;9.15;3.55;;;9.50;99.90;;;;;;5028173;28;20045;-70
2022/10/07 05:23:47;;;;;;;6.55;3.67;;;9.50;99.90;;;;;;5007514;28;20125;-70
2022/10/07 05:26:20;;;;;;;8.05;4.35;;;9.50;99.90;;;;;;5017974;28;20133;-70
2022/10/07 05:28:52;;;;;;;9.55;4.00;;;9.50;99.90;;;;;;5019157;28;20460;-70
2022/10/07 05:31:26;;;;;;;6.18;3.65;;;9.60;99.90;;;;;;5042155;28;20045;-70
2022/10/07 05:33:58;;;;;;;10.73;4.38;;;9.50;99.90;;;;;;5022993;28;20038;-70
2022/10/07 05:36:26;;;;;;;7.05;3.80;;;9.50;99.90;;;;;;5016973;28;20108;-71
2022/10/07 05:38:56;;;;;;;11.98;4.10;;;9.50;99.90;;;;;;5029360;28;20512;-70
2022/10/07 05:41:30;;;;;;;8.10;4.28;;;9.50;99.90;;;;;;5013393;28;20129;-71
2022/10/07 05:44:00;;;;;;;7.65;4.07;;;9.40;99.90;;;;;;5024536;28;20065;-70
2022/10/07 05:46:27;;;;;;;9.00;4.68;;;9.40;99.90;;;;;;5011028;28;20454;-70
2022/10/07 05:48:57;;;;;;;7.45;3.97;;;9.40;99.90;;;;;;5044103;28;20144;-70
2022/10/07 05:51:30;;;;;;;8.13;4.45;;;9.50;99.90;;;;;;5026171;28;20045;-70
2022/10/07 05:53:58;;;;;;;13.40;4.82;;;9.60;99.90;;;;;;5010723;28;20045;-69
2022/10/07 05:56:35;;;;;;;14.95;5.15;;;9.60;99.90;;;;;;5016981;28;20528;-70
2022/10/07 05:59:03;;;;;;;9.18;4.25;;;9.70;99.90;;;;;;5028170;28;20341;-70
2022/10/07 06:01:31;;;;;;;9.40;4.40;;;9.80;99.90;;;;;;5014555;28;20046;-69
2022/10/07 06:04:06;;;;;;;8.43;3.95;;;9.90;99.90;;;;;;5010782;28;20045;-70
2022/10/07 06:06:37;;;;;;;10.15;4.90;;;10.00;99.90;;;;;;5022162;28;20038;-70
2022/10/07 06:14:43;;;;;;;11.73;4.68;;;10.30;99.90;;;;;;5015047;28;20044;-70
2022/10/07 06:17:11;;;;;;;7.90;4.13;;;10.30;99.90;;;;;;5007490;28;20049;-71
2022/10/07 06:19:40;;;;;;;17.48;4.93;;;10.40;99.90;;;;;;5018354;28;20041;-72
2022/10/07 06:22:08;;;;;;;9.48;4.78;;;10.50;99.90;;;;;;5022796;28;20092;-70
2022/10/07 06:24:37;;;;;;;14.27;4.20;;;10.60;99.90;;;;;;5006451;28;20187;-70
2022/10/07 06:27:06;;;;;;;13.10;5.20;;;10.70;99.90;;;;;;5012131;28;20388;-70
2022/10/07 06:29:34;;;;;;;8.38;4.45;;;10.80;99.90;;;;;;5017752;28;20128;-69
2022/10/07 06:32:02;;;;;;;8.90;4.25;;;10.80;99.90;;;;;;5023894;28;20045;-70
2022/10/07 06:34:29;;;;;;;10.25;4.85;;;10.80;99.90;;;;;;5022180;28;20476;-69
2022/10/07 06:36:57;;;;;;;7.50;4.00;;;10.80;99.90;;;;;;5027146;28;20046;-69
2022/10/07 06:39:25;;;;;;;10.95;5.03;;;10.90;99.90;;;;;;5019460;28;20041;-69
2022/10/07 06:41:56;;;;;;;11.15;4.75;;;10.90;99.90;;;;;;5017326;28;20038;-70
2022/10/07 06:44:46;;;;;;;9.52;4.25;;;10.90;99.90;;;;;;5014131;28;20140;-69
2022/10/07 06:47:17;;;;;;;11.30;4.72;;;10.90;99.90;;;;;;5013250;28;20061;-69
2022/10/07 06:49:45;;;;;;;9.75;4.90;;;10.90;99.90;;;;;;5009340;28;20136;-69
2022/10/07 06:52:13;;;;;;;12.68;4.63;;;11.00;99.90;;;;;;5010256;28;20144;-69
2022/10/07 06:54:42;;;;;;;9.25;5.03;;;11.10;99.90;;;;;;5013863;28;20053;-69
2022/10/07 06:57:11;;;;;;;14.00;5.15;;;11.20;99.90;;;;;;5029361;28;20152;-70
2022/10/07 07:00:00;;;;;;;9.15;4.82;;;11.20;99.90;;;;;;5024255;28;20440;-69
2022/10/07 07:02:29;;;;;;;9.93;4.63;;;11.40;99.90;;;;;;5013130;28;20129;-69
2022/10/07 07:04:58;;;;;;;13.10;5.10;;;11.40;99.90;;;;;;4996196;28;20042;-69
2022/10/07 07:07:26;;;;;;;10.80;5.15;;;11.50;99.90;;;;;;4996956;28;20503;-69
2022/10/07 07:09:54;;;;;;;8.45;5.38;;;11.50;99.90;;;;;;5028715;28;20052;-70
2022/10/07 07:12:24;;;;;;;12.75;5.38;;;11.60;99.90;;;;;;5030531;28;20061;-70
2022/10/07 07:14:53;;;;;;;;;;;11.60;99.90;;;;;;5029443;28;20555;-70
2022/10/07 07:17:21;;;;;;;7.55;4.53;;;11.50;99.90;;;;;;5030148;28;19929;-70
2022/10/07 07:19:48;;;;;;;7.55;4.38;;;11.60;99.90;;;;;;5028030;28;20048;-71
2022/10/07 07:22:16;;;;;;;9.50;5.57;;;11.60;99.90;;;;;;5034416;28;20441;-69
2022/10/07 07:24:44;;;;;;;13.82;4.93;;;11.70;99.90;;;;;;5010498;28;20041;-70
2022/10/07 07:27:13;;;;;;;8.85;4.22;;;11.80;99.90;;;;;;5030327;28;20470;-70
2022/10/07 07:29:42;;;;;;;7.93;4.15;;;11.80;99.90;;;;;;5007517;28;20058;-70
2022/10/07 07:32:11;;;;;;;11.40;4.47;;;11.80;99.90;;;;;;5025903;28;20057;-71
2022/10/07 07:34:41;;;;;;;11.55;5.30;;;11.90;99.90;;;;;;5009806;28;20088;-68
2022/10/07 07:37:13;;;;;;;11.05;4.82;;;11.70;99.90;;;;;;5039319;28;20123;-69
2022/10/07 07:39:45;;;;;;;9.35;4.80;;;11.80;99.90;;;;;;5030119;28;20045;-68
2022/10/07 07:42:15;;;;;;;10.18;4.93;;;11.70;99.90;;;;;;5011712;28;20042;-69
2022/10/07 07:44:42;;;;;;;8.07;4.97;;;11.70;99.90;;;;;;5030812;28;20045;-69
2022/10/07 07:47:15;;;;;;;13.37;7.30;;;11.70;99.90;;;;;;5028504;28;20069;-70
2022/10/07 07:49:44;;;;;;;10.10;5.10;;;11.80;99.90;;;;;;5010257;28;20054;-69
2022/10/07 07:52:18;;;;;;;9.35;4.85;;;11.80;99.90;;;;;;5015651;28;20049;-69
2022/10/07 07:54:47;;;;;;;12.32;4.90;;;11.90;99.90;;;;;;5002476;28;20065;-69
2022/10/07 07:57:15;;;;;;;10.10;5.50;;;12.00;99.90;;;;;;5049397;28;20487;-70
2022/10/07 07:59:42;;;;;;;8.02;5.07;;;12.10;99.90;;;;;;5027175;28;20384;-69
2022/10/07 08:02:12;;;;;;;13.57;5.50;;;12.10;99.90;;;;;;5010242;28;20060;-69
2022/10/07 08:04:43;;;;;;;9.83;5.47;;;12.20;99.90;;;;;;5030435;28;20052;-69
2022/10/07 08:07:11;;;;;;;10.40;6.07;;;12.20;99.90;;;;;;5029322;28;20518;-70
2022/10/07 08:09:42;;;;;;;9.13;5.72;;;12.30;99.90;;;;;;5026917;28;20046;-69
2022/10/07 08:12:10;;;;;;;11.40;5.13;;;12.30;99.90;;;;;;5026817;28;20554;-70
2022/10/07 08:14:38;;;;;;;8.75;5.38;;;12.40;99.90;;;;;;4996534;28;20138;-69
2022/10/07 08:17:06;;;;;;;12.18;5.47;;;12.40;99.90;;;;;;5014280;28;20042;-69
2022/10/07 08:19:34;;;;;;;11.75;5.95;;;12.50;99.90;;;;;;5059457;28;20049;-69
2022/10/07 08:22:03;;;;;;;21.75;7.03;;;12.60;99.90;;;;;;5011976;28;20072;-69
2022/10/07 08:24:31;;;;;;;19.27;6.35;;;12.70;99.90;;;;;;5029112;28;20052;-69
2022/10/07 08:26:59;;;;;;;15.25;6.72;;;12.80;99.90;;;;;;5028397;28;20109;-69
2022/10/07 08:29:29;;;;;;;14.10;5.90;;;12.90;99.90;;;;;;5004448;28;20056;-69
2022/10/07 08:31:56;;;;;;;10.02;6.00;;;13.00;99.90;;;;;;5029011;28;20437;-69
2022/10/07 08:34:23;;;;;;;14.18;6.50;;;13.00;99.90;;;;;;5019804;28;20042;-69
2022/10/07 08:36:51;;;;;;;12.35;5.85;;;13.00;99.90;;;;;;5025753;28;20526;-69
2022/10/07 08:39:18;;;;;;;13.93;6.18;;;13.10;99.90;;;;;;5015227;28;20115;-70
2022/10/07 08:41:51;;;;;;;14.38;6.30;;;13.20;99.90;;;;;;5024685;28;20076;-70
2022/10/07 08:44:39;;;;;;;10.82;6.20;;;13.20;99.90;;;;;;5029015;28;20038;-69
2022/10/07 08:47:16;;;;;;;12.00;6.35;;;13.40;99.90;;;;;;5022662;28;20412;-68
2022/10/07 08:49:53;;;;;;;10.88;5.90;;;13.40;99.90;;;;;;5028625;28;20055;-69
2022/10/07 08:52:20;;;;;;;12.52;7.03;;;13.50;99.90;;;;;;5008480;28;20060;-70
2022/10/07 08:54:48;;;;;;;18.63;7.30;;;13.60;99.90;;;;;;5018761;28;20046;-69
2022/10/07 08:57:25;;;;;;;17.30;7.32;;;13.60;99.90;;;;;;5024743;28;20065;-70
2022/10/07 09:00:00;;;;;;;16.27;7.43;;;13.70;99.90;;;;;;5028769;28;20650;-70
2022/10/07 09:02:51;;;;;;;12.65;6.85;;;13.70;99.90;;;;;;5014595;28;20562;-70
2022/10/07 09:05:26;;;;;;;22.13;7.82;;;13.90;99.90;;;;;;5031406;28;20204;-70
2022/10/07 09:08:01;;;;;;;15.40;7.25;;;13.80;99.90;;;;;;5026760;28;20503;-69
2022/10/07 09:10:43;;;;;;;15.45;7.72;;;13.80;99.90;;;;;;5008615;28;20169;-70
2022/10/07 09:13:23;;;;;;;15.23;8.50;;;14.00;99.90;;;;;;5029526;28;20049;-70
2022/10/07 09:16:16;;;;;;;15.52;8.02;;;14.10;99.90;;;;;;5025452;28;20140;-70
2022/10/07 09:18:52;;;;;;;20.63;8.88;;;14.10;99.90;;;;;;5030173;28;20049;-69
2022/10/07 09:21:22;;;;;;;15.90;8.10;;;14.20;99.90;;;;;;5039207;28;20037;-70
2022/10/07 09:24:01;;;;;;;20.45;8.40;;;14.20;99.90;;;;;;5030252;28;20045;-70
2022/10/07 09:26:29;;;;;;;15.05;8.30;;;14.20;99.90;;;;;;5012337;28;20037;-70
2022/10/07 09:28:58;;;;;;;14.93;8.43;;;14.20;99.90;;;;;;5020689;28;20053;-70
2022/10/07 09:31:25;;;;;;;13.52;7.88;;;14.40;99.90;;;;;;5025796;28;20048;-70
2022/10/07 09:33:53;;;;;;;16.40;7.53;;;14.70;99.90;;;;;;5027798;28;20037;-69
2022/10/07 09:36:20;;;;;;;16.42;8.10;;;14.90;99.90;;;;;;5030016;28;20045;-70
2022/10/07 09:38:51;;;;;;;14.98;8.10;;;15.10;99.90;;;;;;5024579;28;20574;-70
2022/10/07 09:41:40;;;;;;;15.43;8.23;;;15.30;99.90;;;;;;5017854;28;20507;-70
2022/10/07 09:44:25;;;;;;;13.52;7.53;;;15.40;99.90;;;;;;5028404;28;20056;-71
2022/10/07 09:46:58;;;;;;;16.85;7.90;;;15.60;99.90;;;;;;5034091;28;20062;-69
2022/10/07 09:49:29;;;;;;;17.23;8.20;;;15.70;99.90;;;;;;5036130;28;20045;-70
2022/10/07 09:52:05;;;;;;;12.53;8.10;;;15.80;99.90;;;;;;5028390;28;20051;-70
2022/10/07 09:54:35;;;;;;;14.88;7.78;;;15.90;99.90;;;;;;5025794;28;20052;-70
2022/10/07 09:57:04;;;;;;;18.38;7.95;;;16.00;99.90;;;;;;5009212;28;20060;-70
2022/10/07 09:59:33;;;;;;;15.48;8.90;;;16.20;99.90;;;;;;5010737;28;20072;-71
2022/10/07 10:02:12;;;;;;;13.65;7.68;;;16.30;99.90;;;;;;5020795;28;20045;-70
2022/10/07 10:04:47;;;;;;;11.77;7.95;;;16.50;99.90;;;;;;5021474;28;20046;-70
2022/10/07 10:07:31;;;;;;;14.70;6.70;;;16.60;99.90;;;;;;5014085;28;20523;-70
2022/10/07 10:10:17;;;;;;;12.07;6.93;;;16.70;99.90;;;;;;4986162;28;20515;-69
2022/10/07 10:12:50;;;;;;;10.18;6.78;;;16.80;99.90;;;;;;5027568;28;20037;-71
2022/10/07 10:15:42;;;;;;;11.73;6.30;;;16.80;99.90;;;;;;5029065;28;20079;-70
2022/10/07 10:18:30;;;;;;;;;;;16.80;99.90;;;;;;5026803;28;20472;-72
2022/10/07 10:21:29;;;;;;;11.85;6.10;;;17.00;99.90;;;;;;5022450;28;19983;-71
2022/10/07 10:23:59;;;;;;;14.20;6.72;;;17.30;99.90;;;;;;5015436;28;20057;-72
2022/10/07 10:26:41;;;;;;;10.13;6.40;;;17.30;99.90;;;;;;5024312;28;20511;-69
2022/10/07 10:29:39;;;;;;;12.00;6.20;;;17.40;99.90;;;;;;5027031;28;20497;-70
2022/10/07 10:32:16;;;;;;;10.82;6.25;;;17.60;99.90;;;;;;5050733;28;20038;-70
2022/10/07 10:34:52;;;;;;;15.57;7.13;;;17.70;99.90;;;;;;5016762;28;20049;-70
2022/10/07 10:37:38;;;;;;;10.43;6.75;;;17.80;99.90;;;;;;5009286;28;20057;-70
2022/10/07 10:40:27;;;;;;;14.10;6.53;;;17.70;99.90;;;;;;5015382;28;20050;-70
2022/10/07 10:42:55;;;;;;;10.02;6.80;;;17.60;99.90;;;;;;5023613;28;20058;-70
2022/10/07 10:45:37;;;;;;;14.55;7.13;;;17.70;99.90;;;;;;5029107;28;20041;-71
2022/10/07 10:48:31;;;;;;;12.02;6.72;;;17.60;99.90;;;;;;5028411;28;20065;-70
2022/10/07 10:51:12;;;;;;;12.65;6.30;;;17.60;99.90;;;;;;5006937;28;20401;-70
2022/10/07 10:54:00;;;;;;;14.02;7.15;;;17.70;99.90;;;;;;5017123;28;20351;-70
2022/10/07 10:56:46;;;;;;;14.27;6.85;;;17.90;99.90;;;;;;5014815;28;20037;-70
2022/10/07 10:59:23;;;;;;;14.30;6.88;;;18.00;99.90;;;;;;5019195;28;20144;-70
2022/10/07 11:02:18;;;;;;;11.48;6.40;;;18.10;99.90;;;;;;5018325;28;20151;-69
2022/10/07 11:04:56;;;;;;;14.43;6.82;;;18.10;99.90;;;;;;5004234;28;20095;-70
2022/10/07 11:07:28;;;;;;;12.52;6.78;;;18.40;99.90;;;;;;5030812;28;20115;-70
2022/10/07 11:10:01;;;;;;;8.98;6.30;;;18.50;99.90;;;;;;5005010;28;20050;-70
2022/10/07 11:12:36;;;;;;;12.25;6.68;;;18.70;99.90;;;;;;4990636;28;20053;-70
2022/10/07 11:15:20;;;;;;;11.02;6.70;;;19.00;99.90;;;;;;5023632;28;20045;-70
2022/10/07 11:17:51;;;;;;;11.98;7.22;;;19.20;99.90;;;;;;5028224;28;20463;-70
2022/10/07 11:20:31;;;;;;;;;;;19.50;99.90;;;;;;4995807;28;20132;-70
2022/10/07 11:23:16;;;;;;;11.98;6.55;;;19.90;99.90;;;;;;5029886;28;20413;-69
2022/10/07 11:25:57;;;;;;;10.02;7.22;;;20.10;99.90;;;;;;4987715;28;20531;-69
2022/10/07 11:28:31;;;;;;;12.13;6.45;;;20.30;99.90;;;;;;5013066;28;20050;-70
2022/10/07 11:30:58;;;;;;;8.15;6.50;;;20.20;99.90;;;;;;5029585;28;20045;-70
2022/10/07 11:33:45;;;;;;;10.02;6.72;;;20.50;99.90;;;;;;5012442;28;20427;-70
2022/10/07 11:36:17;;;;;;;9.55;5.85;;;20.80;99.90;;;;;;5029761;28;20053;-70
2022/10/07 11:38:45;;;;;;;12.80;6.85;;;20.90;99.90;;;;;;5012989;28;20055;-70
2022/10/07 11:41:26;;;;;;;11.75;6.57;;;21.20;99.90;;;;;;5026344;28;20573;-71
2022/10/07 11:43:59;;;;;;;9.43;6.27;;;21.60;99.90;;;;;;5043883;28;20037;-71
2022/10/07 11:46:49;;;;;;;12.38;7.20;;;21.90;99.90;;;;;;5026484;28;20061;-71
2022/10/07 11:49:39;;;;;;;9.73;6.60;;;21.70;99.90;;;;;;5030587;28;20075;-71
2022/10/07 11:52:39;;;;;;;12.38;6.78;;;22.20;99.90;;;;;;5026310;28;20474;-71
2022/10/07 11:55:29;;;;;;;10.38;6.47;;;22.30;99.90;;;;;;5013548;28;20345;-72
2022/10/07 11:58:05;;;;;;;11.82;6.88;;;22.30;99.90;;;;;;4990267;28;20361;-70
2022/10/07 12:00:38;;;;;;;10.73;7.18;;;22.50;99.90;;;;;;5024424;28;20049;-71
2022/10/07 12:03:35;;;;;;;9.68;6.97;;;22.50;99.90;;;;;;5021329;28;20042;-70
2022/10/07 12:06:12;;;;;;;11.43;6.78;;;22.70;99.90;;;;;;5022765;28;20068;-70
2022/10/07 12:08:42;;;;;;;10.20;7.05;;;23.20;99.90;;;;;;5012276;28;20060;-70
2022/10/07 12:11:14;;;;;;;8.70;6.60;;;23.70;99.90;;;;;;5029382;28;20048;-71
2022/10/07 12:13:52;;;;;;;8.98;6.93;;;23.70;99.90;;;;;;4996118;28;20054;-71
2022/10/07 12:16:22;;;;;;;11.23;6.40;;;23.70;99.90;;;;;;5021501;28;20452;-71
2022/10/07 12:19:05;;;;;;;10.98;6.20;;;23.80;99.90;;;;;;5008931;28;20050;-70
2022/10/07 12:22:01;;;;;;;12.50;6.88;;;24.40;99.90;;;;;;5013925;28;20068;-71
2022/10/07 12:24:34;;;;;;;10.13;6.90;;;25.30;99.90;;;;;;5012403;28;20082;-71
2022/10/07 12:27:24;;;;;;;11.70;7.35;;;25.60;99.90;;;;;;5029137;28;20496;-70
2022/10/07 12:30:01;;;;;;;9.88;7.00;;;25.80;99.90;;;;;;5026714;28;20456;-70
2022/10/07 12:32:50;;;;;;;11.10;7.25;;;25.80;99.90;;;;;;5031456;28;20075;-70
2022/10/07 12:35:28;;;;;;;10.93;7.20;;;26.30;99.90;;;;;;5026572;28;20051;-71
2022/10/07 12:38:17;;;;;;;17.25;7.78;;;26.40;99.90;;;;;;5019661;28;20046;-70
2022/10/07 12:41:38;;;;;;;10.02;7.18;;;26.20;99.90;;;;;;5010209;28;20049;-71
2022/10/07 12:44:31;;;;;;;12.27;7.25;;;26.00;99.90;;;;;;5000283;28;20046;-70
2022/10/07 12:47:09;;;;;;;11.93;6.80;;;25.90;99.90;;;;;;5013419;28;20042;-71
2022/10/07 12:49:49;;;;;;;12.57;7.32;;;26.00;99.90;;;;;;5007336;28;20133;-70
2022/10/07 12:52:42;;;;;;;8.63;6.93;;;26.40;99.90;;;;;;4992516;28;20481;-70
2022/10/07 12:55:43;;;;;;;15.77;7.32;;;26.40;99.90;;;;;;5007775;28;20132;-71
2022/10/07 13:02:01;;;;;;;9.57;6.70;;;26.60;99.90;;;;;;5008098;28;20153;-71
2022/10/07 13:04:41;;;;;;;8.77;6.53;;;27.80;99.90;;;;;;5001793;28;20189;-72
2022/10/07 13:07:20;;;;;;;12.32;8.52;;;29.50;99.90;;;;;;5006376;28;20440;-72
2022/10/07 13:09:59;;;;;;;7.00;6.30;;;31.10;98.80;;;;;;4992346;28;20038;-71
2022/10/07 13:12:38;;;;;;;10.70;6.45;;;32.60;94.90;;;;;;5008092;28;20054;-72
2022/10/07 13:15:40;;;;;;;8.25;6.20;;;33.80;92.10;;;;;;4989853;28;20042;-72
2022/10/07 13:18:38;;;;;;;8.80;6.30;;;34.60;88.40;;;;;;4988201;28;20249;-72
2022/10/07 13:21:33;;;;;;;8.02;6.22;;;35.50;83.50;;;;;;5012309;28;20504;-72
2022/10/07 13:24:01;;;;;;;8.52;5.90;;;35.50;80.00;;;;;;5029796;28;20137;-72
2022/10/07 13:26:29;;;;;;;9.02;6.32;;;35.30;78.50;;;;;;5028791;28;20149;-72
2022/10/07 13:28:59;;;;;;;9.40;6.00;;;34.80;78.50;;;;;;5030177;28;20037;-72
2022/10/07 13:31:29;;;;;;;9.20;6.18;;;35.10;78.00;;;;;;5025526;28;20403;-72